createdAt,value
2019-02-10T00:00:37.738Z,0.00
2019-02-10T00:01:37.555Z,0.00
2019-02-10T00:02:37.563Z,0.00
2019-02-10T00:03:37.538Z,0.00
2019-02-10T00:04:37.546Z,0.00
2019-02-10T00:05:37.517Z,0.00
2019-02-10T00:06:37.568Z,0.00
2019-02-10T00:07:37.495Z,0.00
2019-02-10T00:08:37.515Z,0.00
2019-02-10T00:09:37.475Z,0.00
2019-02-10T00:10:37.464Z,0.00
2019-02-10T00:11:37.483Z,0.00
2019-02-10T00:12:37.723Z,0.00
2019-02-10T00:13:37.440Z,0.00
2019-02-10T00:14:37.436Z,0.00
2019-02-10T00:15:37.409Z,0.00
2019-02-10T00:16:37.463Z,0.00
2019-02-10T00:17:37.384Z,0.00
2019-02-10T00:18:37.385Z,0.00
2019-02-10T00:19:37.362Z,0.00
2019-02-10T00:20:37.354Z,0.00
2019-02-10T00:21:37.361Z,0.00
2019-02-10T00:22:37.397Z,0.00
2019-02-10T00:23:37.325Z,0.00
2019-02-10T00:24:37.432Z,0.00
2019-02-10T00:25:37.327Z,0.00
2019-02-10T00:26:37.311Z,0.00
2019-02-10T00:27:37.377Z,0.00
2019-02-10T00:28:37.278Z,0.00
2019-02-10T00:29:37.256Z,0.00
2019-02-10T00:30:37.246Z,0.00
2019-02-10T00:31:37.241Z,0.00
2019-02-10T00:32:37.316Z,0.00
2019-02-10T00:33:37.215Z,0.00
2019-02-10T00:34:37.282Z,0.00
2019-02-10T00:35:37.194Z,0.00
2019-02-10T00:36:37.187Z,0.00
2019-02-10T00:37:37.181Z,0.00
2019-02-10T00:38:37.185Z,0.00
2019-02-10T00:39:37.161Z,0.00
2019-02-10T00:40:37.169Z,0.00
2019-02-10T00:41:37.129Z,0.00
2019-02-10T00:42:37.118Z,0.00
2019-02-10T00:43:37.150Z,0.00
2019-02-10T00:44:37.103Z,0.00
2019-02-10T00:45:37.097Z,0.00
2019-02-10T00:46:37.179Z,0.00
2019-02-10T00:47:37.105Z,0.00
2019-02-10T00:48:37.055Z,0.00
2019-02-10T00:49:37.068Z,0.00
2019-02-10T00:50:37.067Z,0.00
2019-02-10T00:51:37.020Z,0.00
2019-02-10T00:52:37.009Z,0.00
2019-02-10T00:53:37.018Z,0.00
2019-02-10T00:54:37.025Z,0.00
2019-02-10T00:55:37.026Z,0.00
2019-02-10T00:56:36.982Z,0.00
2019-02-10T00:57:36.979Z,0.00
2019-02-10T00:58:36.952Z,0.00
2019-02-10T00:59:37.040Z,0.00
2019-02-10T01:00:36.936Z,0.00
2019-02-10T01:01:36.917Z,0.00
2019-02-10T01:02:36.911Z,0.00
2019-02-10T01:03:36.890Z,0.00
2019-02-10T01:04:36.891Z,0.00
2019-02-10T01:05:37.011Z,0.00
2019-02-10T01:06:41.443Z,0.00
2019-02-10T01:07:36.852Z,0.00
2019-02-10T01:08:36.856Z,0.00
2019-02-10T01:09:36.830Z,0.00
2019-02-10T01:10:36.851Z,0.00
2019-02-10T01:11:36.809Z,0.00
2019-02-10T01:12:36.795Z,0.00
2019-02-10T01:13:36.871Z,0.00
2019-02-10T01:14:36.829Z,0.00
2019-02-10T01:15:36.829Z,0.00
2019-02-10T01:16:36.768Z,0.00
2019-02-10T01:17:36.758Z,0.00
2019-02-10T01:18:36.733Z,0.00
2019-02-10T01:19:36.728Z,0.00
2019-02-10T01:20:36.764Z,0.00
2019-02-10T01:21:36.739Z,0.00
2019-02-10T01:22:36.704Z,0.00
2019-02-10T01:23:36.701Z,0.00
2019-02-10T01:24:36.668Z,0.00
2019-02-10T01:25:36.667Z,0.00
2019-02-10T01:26:36.903Z,0.00
2019-02-10T01:27:36.635Z,0.00
2019-02-10T01:28:36.843Z,0.00
2019-02-10T01:29:36.667Z,0.00
2019-02-10T01:30:36.608Z,0.00
2019-02-10T01:31:36.973Z,0.00
2019-02-10T01:32:37.604Z,0.00
2019-02-10T01:33:36.598Z,0.00
2019-02-10T01:34:36.561Z,0.00
2019-02-10T01:35:36.592Z,0.00
2019-02-10T01:36:36.899Z,0.00
2019-02-10T01:37:36.741Z,0.00
2019-02-10T01:38:36.523Z,0.00
2019-02-10T01:39:36.577Z,0.00
2019-02-10T01:40:36.603Z,0.00
2019-02-10T01:41:36.526Z,0.00
2019-02-10T01:42:36.485Z,0.00
2019-02-10T01:43:36.541Z,0.00
2019-02-10T01:44:36.474Z,0.00
2019-02-10T01:45:36.457Z,0.00
2019-02-10T01:46:36.450Z,0.00
2019-02-10T01:47:36.453Z,0.00
2019-02-10T01:48:36.416Z,0.00
2019-02-10T01:49:36.487Z,0.00
2019-02-10T01:50:36.392Z,0.00
2019-02-10T01:51:36.385Z,0.00
2019-02-10T01:52:36.399Z,0.00
2019-02-10T01:53:36.357Z,0.00
2019-02-10T01:54:36.367Z,0.00
2019-02-10T01:55:36.344Z,0.00
2019-02-10T01:56:36.356Z,0.00
2019-02-10T01:57:36.415Z,0.00
2019-02-10T01:58:36.338Z,0.00
2019-02-10T01:59:36.296Z,0.00
2019-02-10T02:00:36.291Z,0.00
2019-02-10T02:01:36.273Z,0.00
2019-02-10T02:02:36.307Z,0.00
2019-02-10T02:03:36.253Z,0.00
2019-02-10T02:04:36.260Z,0.00
2019-02-10T02:05:36.238Z,0.00
2019-02-10T02:06:36.322Z,0.00
2019-02-10T02:07:36.250Z,0.00
2019-02-10T02:08:36.212Z,0.00
2019-02-10T02:09:36.219Z,0.00
2019-02-10T02:10:36.178Z,0.00
2019-02-10T02:11:36.177Z,0.00
2019-02-10T02:12:44.878Z,0.00
2019-02-10T02:13:36.537Z,0.00
2019-02-10T02:14:36.144Z,0.00
2019-02-10T02:15:36.124Z,0.00
2019-02-10T02:16:36.118Z,0.00
2019-02-10T02:17:36.145Z,0.00
2019-02-10T02:18:36.098Z,0.00
2019-02-10T02:19:36.106Z,0.00
2019-02-10T02:20:36.348Z,0.00
2019-02-10T02:21:36.064Z,0.00
2019-02-10T02:22:36.105Z,0.00
2019-02-10T02:23:36.044Z,0.00
2019-02-10T02:24:36.053Z,0.00
2019-02-10T02:25:36.025Z,0.00
2019-02-10T02:26:36.130Z,0.00
2019-02-10T02:27:36.001Z,0.00
2019-02-10T02:28:36.064Z,0.00
2019-02-10T02:29:36.005Z,0.00
2019-02-10T02:30:35.983Z,0.00
2019-02-10T02:31:35.961Z,0.00
2019-02-10T02:32:36.035Z,0.00
2019-02-10T02:33:35.966Z,0.00
2019-02-10T02:34:35.934Z,0.00
2019-02-10T02:35:35.945Z,0.00
2019-02-10T02:36:35.915Z,0.00
2019-02-10T02:37:35.893Z,0.00
2019-02-10T02:38:35.936Z,0.00
2019-02-10T02:39:35.876Z,0.00
2019-02-10T02:40:35.901Z,0.00
2019-02-10T02:41:35.847Z,0.00
2019-02-10T02:42:35.852Z,0.00
2019-02-10T02:43:35.901Z,0.00
2019-02-10T02:44:35.832Z,0.00
2019-02-10T02:45:36.080Z,0.00
2019-02-10T02:46:35.798Z,0.00
2019-02-10T02:47:35.824Z,0.00
2019-02-10T02:48:35.814Z,0.00
2019-02-10T02:49:35.789Z,0.00
2019-02-10T02:50:35.764Z,0.00
2019-02-10T02:51:35.756Z,0.00
2019-02-10T02:52:35.874Z,0.00
2019-02-10T02:53:35.731Z,0.00
2019-02-10T02:54:35.739Z,0.00
2019-02-10T02:55:35.831Z,0.00
2019-02-10T02:56:35.684Z,0.00
2019-02-10T02:57:35.707Z,0.00
2019-02-10T02:58:35.668Z,0.00
2019-02-10T02:59:35.697Z,0.00
2019-02-10T03:00:35.715Z,0.00
2019-02-10T03:01:35.635Z,0.00
2019-02-10T03:02:35.624Z,0.00
2019-02-10T03:03:35.617Z,0.00
2019-02-10T03:04:35.866Z,0.00
2019-02-10T03:05:35.654Z,0.00
2019-02-10T03:06:35.583Z,0.00
2019-02-10T03:07:35.608Z,0.00
2019-02-10T03:08:35.574Z,0.00
2019-02-10T03:09:35.580Z,0.00
2019-02-10T03:10:35.536Z,0.00
2019-02-10T03:11:35.711Z,0.00
2019-02-10T03:12:35.525Z,0.00
2019-02-10T03:13:35.505Z,0.00
2019-02-10T03:14:35.519Z,0.00
2019-02-10T03:15:35.544Z,0.00
2019-02-10T03:16:35.571Z,0.00
2019-02-10T03:17:35.494Z,0.00
2019-02-10T03:18:35.450Z,0.00
2019-02-10T03:19:35.617Z,0.00
2019-02-10T03:20:35.434Z,0.00
2019-02-10T03:21:35.439Z,0.00
2019-02-10T03:22:35.410Z,0.00
2019-02-10T03:23:35.425Z,0.00
2019-02-10T03:24:35.436Z,0.00
2019-02-10T03:25:35.390Z,0.00
2019-02-10T03:26:35.364Z,0.00
2019-02-10T03:27:35.359Z,0.00
2019-02-10T03:28:35.398Z,0.00
2019-02-10T03:29:35.353Z,0.00
2019-02-10T03:30:35.470Z,0.00
2019-02-10T03:31:35.345Z,0.00
2019-02-10T03:32:35.593Z,0.00
2019-02-10T03:33:35.293Z,0.00
2019-02-10T03:34:35.296Z,0.00
2019-02-10T03:35:35.395Z,0.00
2019-02-10T03:36:35.272Z,0.00
2019-02-10T03:37:35.260Z,0.00
2019-02-10T03:38:35.255Z,0.00
2019-02-10T03:39:35.319Z,0.00
2019-02-10T03:40:35.314Z,0.00
2019-02-10T03:41:35.220Z,0.00
2019-02-10T03:42:35.197Z,0.00
2019-02-10T03:43:35.191Z,0.00
2019-02-10T03:44:35.247Z,0.00
2019-02-10T03:45:35.380Z,0.00
2019-02-10T03:46:35.176Z,0.00
2019-02-10T03:47:35.146Z,0.00
2019-02-10T03:48:35.151Z,0.00
2019-02-10T03:49:35.121Z,0.00
2019-02-10T03:50:35.159Z,0.00
2019-02-10T03:51:35.105Z,0.00
2019-02-10T03:52:35.110Z,0.00
2019-02-10T03:53:35.089Z,0.00
2019-02-10T03:54:35.122Z,0.00
2019-02-10T03:55:35.072Z,0.00
2019-02-10T03:56:35.226Z,0.00
2019-02-10T03:57:35.039Z,0.00
2019-02-10T03:58:35.032Z,0.00
2019-02-10T03:59:35.048Z,0.00
2019-02-10T04:00:35.018Z,0.00
2019-02-10T04:01:35.040Z,0.00
2019-02-10T04:02:35.050Z,0.00
2019-02-10T04:03:34.970Z,0.00
2019-02-10T04:04:34.969Z,0.00
2019-02-10T04:05:34.953Z,0.00
2019-02-10T04:06:34.979Z,0.00
2019-02-10T04:07:36.431Z,0.00
2019-02-10T04:08:34.945Z,0.00
2019-02-10T04:09:34.907Z,0.00
2019-02-10T04:10:34.973Z,0.00
2019-02-10T04:11:34.962Z,0.00
2019-02-10T04:12:34.883Z,0.00
2019-02-10T04:13:34.883Z,0.00
2019-02-10T04:14:34.863Z,0.00
2019-02-10T04:15:34.843Z,0.00
2019-02-10T04:16:34.881Z,0.00
2019-02-10T04:17:34.847Z,0.00
2019-02-10T04:18:34.927Z,0.00
2019-02-10T04:19:34.798Z,0.00
2019-02-10T04:20:34.796Z,0.00
2019-02-10T04:21:34.780Z,0.00
2019-02-10T04:22:34.795Z,0.00
2019-02-10T04:23:34.762Z,0.00
2019-02-10T04:24:34.770Z,0.00
2019-02-10T04:25:34.761Z,0.00
2019-02-10T04:26:34.728Z,0.00
2019-02-10T04:27:34.769Z,0.00
2019-02-10T04:28:34.700Z,0.00
2019-02-10T04:29:34.699Z,0.00
2019-02-10T04:30:34.704Z,0.00
2019-02-10T04:31:34.676Z,0.00
2019-02-10T04:32:34.750Z,0.00
2019-02-10T04:33:34.649Z,0.00
2019-02-10T04:34:34.668Z,0.00
2019-02-10T04:35:34.660Z,0.00
2019-02-10T04:36:34.618Z,0.00
2019-02-10T04:37:34.683Z,0.00
2019-02-10T04:38:34.607Z,0.00
2019-02-10T04:39:34.610Z,0.00
2019-02-10T04:40:34.592Z,0.00
2019-02-10T04:41:34.570Z,0.00
2019-02-10T04:42:34.576Z,0.00
2019-02-10T04:43:34.545Z,0.00
2019-02-10T04:44:34.577Z,0.00
2019-02-10T04:45:34.529Z,0.00
2019-02-10T04:46:34.559Z,0.00
2019-02-10T04:47:34.596Z,0.00
2019-02-10T04:48:34.490Z,0.00
2019-02-10T04:49:34.490Z,0.00
2019-02-10T04:50:34.468Z,0.00
2019-02-10T04:51:34.525Z,0.00
2019-02-10T04:52:34.450Z,0.00
2019-02-10T04:53:34.480Z,0.00
2019-02-10T04:54:34.422Z,0.00
2019-02-10T04:55:34.564Z,0.00
2019-02-10T04:56:34.404Z,0.00
2019-02-10T04:57:34.393Z,0.00
2019-02-10T04:58:34.439Z,0.00
2019-02-10T04:59:34.455Z,0.00
2019-02-10T05:00:34.366Z,0.00
2019-02-10T05:01:34.362Z,0.00
2019-02-10T05:02:34.373Z,0.00
2019-02-10T05:03:34.378Z,0.00
2019-02-10T05:04:34.316Z,0.00
2019-02-10T05:05:34.392Z,0.00
2019-02-10T05:06:34.387Z,0.00
2019-02-10T05:07:34.286Z,0.00
2019-02-10T05:08:34.314Z,0.00
2019-02-10T05:09:34.278Z,0.00
2019-02-10T05:10:34.257Z,0.00
2019-02-10T05:11:34.261Z,0.00
2019-02-10T05:12:34.305Z,0.00
2019-02-10T05:13:34.221Z,0.00
2019-02-10T05:14:34.248Z,0.00
2019-02-10T05:15:34.207Z,0.00
2019-02-10T05:16:34.191Z,0.00
2019-02-10T05:17:34.183Z,0.00
2019-02-10T05:18:34.206Z,0.00
2019-02-10T05:19:34.187Z,0.00
2019-02-10T05:20:34.158Z,0.00
2019-02-10T05:21:34.283Z,0.00
2019-02-10T05:22:34.129Z,0.00
2019-02-10T05:23:34.119Z,0.00
2019-02-10T05:24:34.150Z,0.00
2019-02-10T05:25:34.156Z,0.00
2019-02-10T05:26:34.118Z,0.00
2019-02-10T05:27:34.217Z,0.00
2019-02-10T05:28:34.066Z,0.00
2019-02-10T05:29:34.123Z,0.00
2019-02-10T05:30:34.053Z,0.00
2019-02-10T05:31:34.063Z,0.00
2019-02-10T05:32:34.017Z,0.00
2019-02-10T05:33:34.021Z,0.00
2019-02-10T05:34:34.049Z,0.00
2019-02-10T05:35:34.037Z,0.00
2019-02-10T05:36:33.985Z,0.00
2019-02-10T05:37:33.975Z,0.00
2019-02-10T05:38:33.965Z,0.00
2019-02-10T05:39:33.983Z,0.00
2019-02-10T05:40:33.939Z,0.00
2019-02-10T05:41:33.990Z,0.00
2019-02-10T05:42:33.912Z,0.00
2019-02-10T05:43:33.922Z,0.00
2019-02-10T05:44:33.962Z,0.00
2019-02-10T05:45:33.901Z,0.00
2019-02-10T05:46:33.905Z,0.00
2019-02-10T05:47:33.879Z,0.00
2019-02-10T05:48:33.891Z,0.00
2019-02-10T05:49:33.869Z,0.00
2019-02-10T05:50:33.856Z,0.00
2019-02-10T05:51:33.838Z,0.00
2019-02-10T05:52:33.812Z,0.00
2019-02-10T05:53:33.807Z,0.00
2019-02-10T05:54:33.830Z,0.00
2019-02-10T05:55:33.824Z,0.00
2019-02-10T05:56:33.808Z,0.00
2019-02-10T05:57:33.797Z,0.00
2019-02-10T05:58:33.749Z,0.00
2019-02-10T05:59:33.737Z,0.00
2019-02-10T06:00:33.761Z,0.00
2019-02-10T06:01:33.712Z,0.00
2019-02-10T06:02:33.793Z,0.00
2019-02-10T06:03:33.777Z,0.00
2019-02-10T06:04:33.681Z,0.00
2019-02-10T06:05:33.679Z,0.00
2019-02-10T06:06:33.733Z,0.00
2019-02-10T06:07:33.646Z,0.00
2019-02-10T06:08:33.644Z,0.00
2019-02-10T06:09:33.694Z,0.00
2019-02-10T06:10:33.617Z,0.00
2019-02-10T06:11:33.630Z,0.00
2019-02-10T06:12:33.769Z,0.00
2019-02-10T06:13:33.610Z,0.00
2019-02-10T06:14:33.605Z,0.00
2019-02-10T06:15:33.621Z,0.00
2019-02-10T06:16:33.583Z,0.00
2019-02-10T06:17:33.565Z,0.00
2019-02-10T06:18:33.548Z,0.00
2019-02-10T06:19:33.534Z,0.00
2019-02-10T06:20:33.513Z,0.00
2019-02-10T06:21:33.538Z,0.00
2019-02-10T06:22:33.493Z,0.00
2019-02-10T06:23:33.483Z,0.00
2019-02-10T06:24:33.467Z,0.00
2019-02-10T06:25:33.513Z,0.00
2019-02-10T06:26:33.487Z,0.00
2019-02-10T06:27:33.473Z,0.00
2019-02-10T06:28:33.437Z,0.00
2019-02-10T06:29:33.429Z,0.00
2019-02-10T06:30:33.404Z,0.00
2019-02-10T06:31:33.396Z,0.00
2019-02-10T06:32:33.407Z,0.00
2019-02-10T06:33:36.399Z,0.00
2019-02-10T06:34:33.369Z,0.00
2019-02-10T06:35:33.377Z,0.00
2019-02-10T06:36:33.345Z,0.00
2019-02-10T06:37:33.502Z,0.00
2019-02-10T06:38:33.319Z,0.00
2019-02-10T06:39:33.310Z,0.00
2019-02-10T06:40:33.307Z,0.00
2019-02-10T06:41:33.306Z,0.00
2019-02-10T06:42:33.314Z,0.00
2019-02-10T06:43:33.263Z,0.00
2019-02-10T06:44:33.273Z,0.00
2019-02-10T06:45:33.238Z,0.00
2019-02-10T06:46:33.229Z,0.00
2019-02-10T06:47:33.258Z,0.00
2019-02-10T06:48:33.230Z,0.00
2019-02-10T06:49:33.208Z,0.00
2019-02-10T06:50:33.237Z,0.00
2019-02-10T06:51:33.178Z,0.00
2019-02-10T06:52:33.255Z,0.00
2019-02-10T06:53:34.763Z,0.00
2019-02-10T06:54:33.190Z,0.00
2019-02-10T06:55:33.150Z,0.00
2019-02-10T06:56:33.142Z,0.00
2019-02-10T06:57:33.135Z,0.00
2019-02-10T06:58:33.177Z,5.62
2019-02-10T06:59:33.181Z,5.62
2019-02-10T07:00:33.129Z,5.62
2019-02-10T07:01:33.156Z,5.62
2019-02-10T07:02:33.102Z,5.62
2019-02-10T07:03:33.048Z,5.62
2019-02-10T07:04:33.041Z,5.62
2019-02-10T07:05:33.056Z,5.62
2019-02-10T07:06:33.021Z,5.62
2019-02-10T07:07:33.037Z,5.62
2019-02-10T07:08:33.073Z,5.62
2019-02-10T07:09:33.003Z,11.25
2019-02-10T07:10:32.979Z,11.25
2019-02-10T07:11:32.963Z,11.25
2019-02-10T07:12:32.960Z,16.88
2019-02-10T07:13:33.014Z,22.50
2019-02-10T07:14:32.972Z,22.50
2019-02-10T07:15:32.924Z,28.12
2019-02-10T07:16:32.934Z,28.12
2019-02-10T07:17:32.901Z,28.12
2019-02-10T07:18:32.975Z,28.12
2019-02-10T07:19:32.882Z,33.75
2019-02-10T07:20:32.892Z,33.75
2019-02-10T07:21:32.899Z,39.38
2019-02-10T07:22:32.853Z,45.00
2019-02-10T07:23:32.893Z,45.00
2019-02-10T07:24:32.823Z,50.62
2019-02-10T07:25:32.825Z,45.00
2019-02-10T07:26:32.801Z,39.38
2019-02-10T07:27:32.799Z,33.75
2019-02-10T07:28:32.839Z,39.38
2019-02-10T07:29:32.912Z,39.38
2019-02-10T07:30:32.792Z,39.38
2019-02-10T07:31:32.755Z,33.75
2019-02-10T07:32:32.744Z,33.75
2019-02-10T07:33:32.756Z,39.38
2019-02-10T07:34:32.778Z,39.38
2019-02-10T07:35:32.705Z,45.00
2019-02-10T07:36:32.710Z,45.00
2019-02-10T07:37:32.691Z,50.62
2019-02-10T07:38:38.452Z,45.00
2019-02-10T07:39:33.701Z,50.62
2019-02-10T07:40:32.670Z,50.62
2019-02-10T07:41:32.639Z,50.62
2019-02-10T07:42:32.678Z,50.62
2019-02-10T07:43:32.628Z,50.62
2019-02-10T07:44:32.647Z,45.00
2019-02-10T07:45:32.699Z,50.62
2019-02-10T07:46:32.589Z,45.00
2019-02-10T07:47:32.586Z,50.62
2019-02-10T07:48:32.648Z,61.88
2019-02-10T07:49:32.560Z,61.88
2019-02-10T07:50:32.559Z,73.12
2019-02-10T07:51:32.559Z,78.75
2019-02-10T07:52:32.612Z,73.12
2019-02-10T07:53:32.530Z,73.12
2019-02-10T07:54:32.504Z,73.12
2019-02-10T07:55:32.506Z,84.38
2019-02-10T07:56:32.519Z,90.00
2019-02-10T07:57:32.499Z,61.88
2019-02-10T07:58:32.465Z,50.62
2019-02-10T07:59:32.539Z,73.12
2019-02-10T08:00:32.450Z,95.62
2019-02-10T08:01:32.464Z,78.75
2019-02-10T08:02:32.414Z,73.12
2019-02-10T08:03:32.449Z,78.75
2019-02-10T08:04:32.411Z,78.75
2019-02-10T08:05:32.410Z,73.12
2019-02-10T08:06:32.383Z,90.00
2019-02-10T08:07:32.426Z,67.50
2019-02-10T08:08:32.377Z,95.62
2019-02-10T08:09:32.381Z,73.12
2019-02-10T08:10:32.330Z,73.12
2019-02-10T08:11:32.402Z,84.38
2019-02-10T08:12:32.538Z,118.12
2019-02-10T08:13:33.192Z,129.38
2019-02-10T08:14:32.310Z,151.88
2019-02-10T08:15:32.321Z,135.00
2019-02-10T08:16:32.266Z,146.25
2019-02-10T08:17:32.312Z,151.88
2019-02-10T08:18:32.300Z,140.62
2019-02-10T08:19:32.244Z,157.50
2019-02-10T08:20:32.232Z,163.12
2019-02-10T08:21:32.218Z,151.88
2019-02-10T08:22:32.275Z,146.25
2019-02-10T08:23:32.212Z,129.38
2019-02-10T08:24:32.188Z,146.25
2019-02-10T08:25:32.183Z,146.25
2019-02-10T08:26:32.229Z,129.38
2019-02-10T08:27:32.237Z,112.50
2019-02-10T08:28:32.172Z,140.62
2019-02-10T08:29:32.171Z,146.25
2019-02-10T08:30:32.134Z,157.50
2019-02-10T08:31:32.117Z,163.12
2019-02-10T08:32:32.100Z,163.12
2019-02-10T08:33:32.380Z,157.50
2019-02-10T08:34:32.083Z,151.88
2019-02-10T08:35:32.709Z,157.50
2019-02-10T08:36:32.061Z,123.75
2019-02-10T08:37:32.064Z,129.38
2019-02-10T08:38:32.102Z,146.25
2019-02-10T08:39:32.042Z,140.62
2019-02-10T08:40:32.027Z,118.12
2019-02-10T08:41:32.036Z,112.50
2019-02-10T08:42:32.001Z,106.88
2019-02-10T08:43:32.033Z,112.50
2019-02-10T08:44:32.037Z,90.00
2019-02-10T08:45:31.968Z,73.12
2019-02-10T08:46:31.976Z,73.12
2019-02-10T08:47:33.674Z,78.75
2019-02-10T08:48:31.972Z,73.12
2019-02-10T08:49:31.950Z,73.12
2019-02-10T08:50:31.908Z,73.12
2019-02-10T08:51:31.897Z,73.12
2019-02-10T08:52:31.949Z,73.12
2019-02-10T08:53:31.882Z,84.38
2019-02-10T08:54:31.884Z,78.75
2019-02-10T08:55:31.875Z,73.12
2019-02-10T08:56:31.852Z,67.50
2019-02-10T08:57:31.840Z,50.62
2019-02-10T08:58:31.823Z,50.62
2019-02-10T08:59:31.838Z,61.88
2019-02-10T09:00:31.798Z,61.88
2019-02-10T09:01:31.805Z,56.25
2019-02-10T09:02:31.829Z,61.88
2019-02-10T09:03:31.806Z,56.25
2019-02-10T09:04:31.788Z,45.00
2019-02-10T09:05:31.746Z,45.00
2019-02-10T09:06:31.765Z,50.62
2019-02-10T09:07:31.768Z,50.62
2019-02-10T09:08:31.728Z,56.25
2019-02-10T09:09:31.814Z,61.88
2019-02-10T09:10:31.692Z,56.25
2019-02-10T09:11:31.683Z,67.50
2019-02-10T09:12:31.673Z,73.12
2019-02-10T09:13:31.667Z,90.00
2019-02-10T09:14:31.740Z,90.00
2019-02-10T09:15:31.656Z,73.12
2019-02-10T09:16:31.647Z,73.12
2019-02-10T09:17:31.639Z,90.00
2019-02-10T09:18:31.645Z,84.38
2019-02-10T09:19:31.675Z,90.00
2019-02-10T09:20:31.628Z,78.75
2019-02-10T09:21:31.579Z,90.00
2019-02-10T09:22:31.616Z,84.38
2019-02-10T09:23:31.561Z,67.50
2019-02-10T09:24:31.599Z,73.12
2019-02-10T09:25:31.562Z,78.75
2019-02-10T09:26:31.555Z,78.75
2019-02-10T09:27:31.565Z,78.75
2019-02-10T09:28:31.508Z,78.75
2019-02-10T09:29:31.492Z,84.38
2019-02-10T09:30:31.482Z,78.75
2019-02-10T09:31:33.182Z,90.00
2019-02-10T09:32:31.550Z,90.00
2019-02-10T09:33:31.484Z,90.00
2019-02-10T09:34:31.448Z,95.62
2019-02-10T09:35:31.455Z,101.25
2019-02-10T09:36:31.463Z,106.88
2019-02-10T09:37:31.721Z,118.12
2019-02-10T09:38:31.516Z,129.38
2019-02-10T09:39:31.411Z,135.00
2019-02-10T09:40:31.408Z,135.00
2019-02-10T09:41:31.387Z,129.38
2019-02-10T09:42:31.441Z,129.38
2019-02-10T09:43:31.338Z,123.75
2019-02-10T09:44:31.346Z,129.38
2019-02-10T09:45:31.547Z,146.25
2019-02-10T09:46:31.329Z,157.50
2019-02-10T09:47:31.341Z,168.75
2019-02-10T09:48:31.352Z,180.00
2019-02-10T09:49:31.307Z,185.62
2019-02-10T09:50:31.270Z,185.62
2019-02-10T09:51:31.255Z,180.00
2019-02-10T09:52:31.288Z,174.38
2019-02-10T09:53:31.378Z,180.00
2019-02-10T09:54:31.257Z,180.00
2019-02-10T09:55:31.254Z,168.75
2019-02-10T09:56:31.204Z,163.12
2019-02-10T09:57:31.305Z,163.12
2019-02-10T09:58:31.188Z,163.12
2019-02-10T09:59:31.175Z,174.38
2019-02-10T10:00:31.189Z,185.62
2019-02-10T10:01:31.156Z,196.88
2019-02-10T10:02:31.283Z,202.50
2019-02-10T10:03:31.127Z,213.75
2019-02-10T10:04:31.231Z,225.00
2019-02-10T10:05:31.120Z,225.00
2019-02-10T10:06:31.132Z,230.62
2019-02-10T10:07:31.084Z,230.62
2019-02-10T10:08:31.112Z,213.75
2019-02-10T10:09:31.498Z,213.75
2019-02-10T10:10:31.108Z,202.50
2019-02-10T10:11:31.062Z,180.00
2019-02-10T10:12:31.064Z,168.75
2019-02-10T10:13:31.152Z,168.75
2019-02-10T10:14:31.216Z,168.75
2019-02-10T10:15:31.016Z,174.38
2019-02-10T10:16:31.209Z,174.38
2019-02-10T10:17:30.980Z,168.75
2019-02-10T10:18:30.966Z,168.75
2019-02-10T10:19:31.059Z,163.12
2019-02-10T10:20:30.950Z,168.75
2019-02-10T10:21:30.938Z,168.75
2019-02-10T10:22:30.957Z,163.12
2019-02-10T10:23:30.960Z,168.75
2019-02-10T10:24:30.970Z,180.00
2019-02-10T10:25:30.922Z,185.62
2019-02-10T10:26:30.881Z,196.88
2019-02-10T10:27:30.877Z,219.38
2019-02-10T10:28:30.876Z,236.25
2019-02-10T10:29:30.897Z,258.75
2019-02-10T10:30:30.894Z,270.00
2019-02-10T10:31:30.831Z,281.25
2019-02-10T10:32:30.841Z,292.50
2019-02-10T10:33:31.994Z,303.75
2019-02-10T10:34:30.836Z,320.62
2019-02-10T10:35:30.919Z,326.25
2019-02-10T10:36:30.796Z,320.62
2019-02-10T10:37:30.778Z,315.00
2019-02-10T10:38:30.759Z,309.38
2019-02-10T10:39:30.794Z,303.75
2019-02-10T10:40:30.769Z,298.12
2019-02-10T10:41:30.724Z,298.12
2019-02-10T10:42:30.924Z,286.88
2019-02-10T10:43:30.697Z,281.25
2019-02-10T10:44:30.692Z,281.25
2019-02-10T10:45:30.751Z,281.25
2019-02-10T10:46:30.771Z,286.88
2019-02-10T10:47:30.747Z,292.50
2019-02-10T10:48:30.642Z,281.25
2019-02-10T10:49:30.675Z,275.62
2019-02-10T10:50:30.729Z,258.75
2019-02-10T10:51:30.633Z,253.12
2019-02-10T10:52:30.636Z,247.50
2019-02-10T10:53:30.590Z,253.12
2019-02-10T10:54:30.603Z,258.75
2019-02-10T10:55:30.642Z,275.62
2019-02-10T10:56:30.566Z,292.50
2019-02-10T10:57:30.573Z,309.38
2019-02-10T10:58:30.640Z,315.00
2019-02-10T10:59:30.540Z,315.00
2019-02-10T11:00:30.515Z,309.38
2019-02-10T11:01:30.548Z,292.50
2019-02-10T11:02:30.513Z,281.25
2019-02-10T11:03:30.505Z,275.62
2019-02-10T11:04:30.517Z,270.00
2019-02-10T11:05:30.484Z,264.38
2019-02-10T11:06:30.522Z,264.38
2019-02-10T11:07:30.535Z,286.88
2019-02-10T11:08:30.453Z,309.38
2019-02-10T11:09:35.417Z,326.25
2019-02-10T11:10:31.405Z,331.88
2019-02-10T11:11:30.399Z,337.50
2019-02-10T11:12:30.420Z,348.75
2019-02-10T11:13:30.375Z,354.38
2019-02-10T11:14:30.369Z,360.00
2019-02-10T11:15:30.361Z,360.00
2019-02-10T11:16:30.398Z,354.38
2019-02-10T11:17:30.365Z,360.00
2019-02-10T11:18:30.321Z,371.25
2019-02-10T11:19:30.336Z,382.50
2019-02-10T11:20:30.345Z,388.12
2019-02-10T11:21:30.339Z,360.00
2019-02-10T11:22:30.355Z,354.38
2019-02-10T11:23:30.265Z,348.75
2019-02-10T11:24:30.363Z,337.50
2019-02-10T11:25:30.248Z,337.50
2019-02-10T11:26:30.269Z,331.88
2019-02-10T11:27:30.370Z,315.00
2019-02-10T11:28:30.249Z,309.38
2019-02-10T11:29:30.212Z,315.00
2019-02-10T11:30:31.114Z,343.12
2019-02-10T11:31:30.192Z,365.62
2019-02-10T11:32:30.214Z,376.88
2019-02-10T11:33:30.254Z,376.88
2019-02-10T11:34:30.143Z,371.25
2019-02-10T11:35:30.236Z,360.00
2019-02-10T11:36:30.141Z,360.00
2019-02-10T11:37:31.156Z,360.00
2019-02-10T11:38:30.137Z,354.38
2019-02-10T11:39:30.091Z,365.62
2019-02-10T11:40:30.105Z,365.62
2019-02-10T11:41:30.070Z,360.00
2019-02-10T11:42:30.149Z,360.00
2019-02-10T11:43:30.067Z,365.62
2019-02-10T11:44:30.062Z,393.75
2019-02-10T11:45:30.044Z,393.75
2019-02-10T11:46:30.016Z,382.50
2019-02-10T11:47:30.024Z,371.25
2019-02-10T11:48:30.037Z,354.38
2019-02-10T11:49:29.985Z,343.12
2019-02-10T11:50:29.994Z,326.25
2019-02-10T11:51:29.956Z,331.88
2019-02-10T11:52:29.946Z,365.62
2019-02-10T11:53:29.981Z,388.12
2019-02-10T11:54:29.945Z,376.88
2019-02-10T11:55:29.915Z,382.50
2019-02-10T11:56:29.911Z,376.88
2019-02-10T11:57:29.891Z,365.62
2019-02-10T11:58:29.984Z,331.88
2019-02-10T11:59:29.878Z,309.38
2019-02-10T12:00:29.886Z,298.12
2019-02-10T12:01:29.936Z,326.25
2019-02-10T12:02:37.596Z,303.75
2019-02-10T12:03:30.912Z,286.88
2019-02-10T12:04:29.821Z,275.62
2019-02-10T12:05:29.813Z,247.50
2019-02-10T12:06:29.858Z,213.75
2019-02-10T12:07:29.785Z,225.00
2019-02-10T12:08:35.731Z,343.12
2019-02-10T12:09:30.927Z,371.25
2019-02-10T12:10:29.921Z,286.88
2019-02-10T12:11:29.746Z,230.62
2019-02-10T12:12:29.732Z,348.75
2019-02-10T12:13:29.869Z,388.12
2019-02-10T12:14:29.796Z,343.12
2019-02-10T12:15:29.707Z,343.12
2019-02-10T12:16:29.760Z,343.12
2019-02-10T12:17:29.716Z,348.75
2019-02-10T12:18:29.706Z,393.75
2019-02-10T12:19:31.383Z,433.12
2019-02-10T12:20:30.362Z,461.25
2019-02-10T12:21:29.761Z,416.25
2019-02-10T12:22:30.449Z,421.88
2019-02-10T12:23:29.613Z,478.12
2019-02-10T12:24:32.526Z,523.12
2019-02-10T12:25:29.604Z,551.25
2019-02-10T12:26:29.658Z,562.50
2019-02-10T12:27:29.586Z,534.38
2019-02-10T12:28:29.557Z,500.62
2019-02-10T12:29:29.594Z,466.88
2019-02-10T12:30:29.602Z,427.50
2019-02-10T12:31:29.546Z,393.75
2019-02-10T12:32:29.567Z,365.62
2019-02-10T12:33:29.511Z,326.25
2019-02-10T12:34:29.550Z,286.88
2019-02-10T12:35:29.677Z,309.38
2019-02-10T12:36:29.471Z,343.12
2019-02-10T12:37:32.472Z,360.00
2019-02-10T12:38:29.458Z,360.00
2019-02-10T12:39:29.447Z,360.00
2019-02-10T12:40:29.468Z,365.62
2019-02-10T12:41:29.515Z,365.62
2019-02-10T12:42:29.457Z,354.38
2019-02-10T12:43:29.393Z,326.25
2019-02-10T12:44:29.387Z,298.12
2019-02-10T12:45:29.445Z,275.62
2019-02-10T12:46:29.364Z,270.00
2019-02-10T12:47:29.358Z,298.12
2019-02-10T12:48:29.366Z,365.62
2019-02-10T12:49:29.328Z,433.12
2019-02-10T12:50:29.375Z,478.12
2019-02-10T12:51:29.329Z,506.25
2019-02-10T12:52:29.305Z,511.88
2019-02-10T12:53:29.301Z,500.62
2019-02-10T12:54:29.324Z,472.50
2019-02-10T12:55:29.302Z,450.00
2019-02-10T12:56:29.253Z,455.62
2019-02-10T12:57:29.247Z,483.75
2019-02-10T12:58:29.245Z,506.25